createdAt,value
2019-05-01T00:02:21.269Z,22.60
2019-05-01T00:05:30.804Z,24.20
2019-05-01T00:08:36.021Z,24.57
2019-05-01T00:11:42.472Z,24.00
2019-05-01T00:14:49.703Z,23.63
2019-05-01T00:17:55.095Z,22.43
2019-05-01T00:21:00.632Z,24.47
2019-05-01T00:24:07.956Z,23.43
2019-05-01T00:27:12.964Z,24.20
2019-05-01T00:30:29.776Z,23.10
2019-05-01T00:33:29.702Z,23.93
2019-05-01T00:36:34.968Z,24.50
2019-05-01T00:39:40.186Z,23.80
2019-05-01T00:42:45.427Z,23.97
2019-05-01T00:45:50.733Z,23.80
2019-05-01T00:48:58.257Z,25.20
2019-05-01T00:52:03.384Z,24.97
2019-05-01T00:55:26.275Z,25.77
2019-05-01T00:58:39.533Z,26.40
2019-05-01T01:02:07.511Z,23.97
2019-05-01T01:05:12.891Z,24.67
2019-05-01T01:08:18.021Z,26.10
2019-05-01T01:11:24.837Z,25.57
2019-05-01T01:14:31.063Z,24.47
2019-05-01T01:17:36.174Z,24.00
2019-05-01T01:20:41.379Z,24.20
2019-05-01T01:23:46.628Z,23.57
2019-05-01T01:26:51.751Z,25.20
2019-05-01T01:29:57.167Z,25.00
2019-05-01T01:33:02.364Z,27.43
2019-05-01T01:36:07.591Z,24.40
2019-05-01T01:39:12.748Z,24.63
2019-05-01T01:42:18.135Z,23.97
2019-05-01T01:45:33.880Z,25.47
2019-05-01T01:48:39.225Z,23.90
2019-05-01T01:51:44.600Z,25.63
2019-05-01T01:54:49.946Z,24.70
2019-05-01T01:57:55.661Z,24.77
2019-05-01T02:01:10.807Z,22.70
2019-05-01T02:04:46.961Z,24.30
2019-05-01T02:07:52.593Z,23.67
2019-05-01T02:10:58.941Z,24.17
2019-05-01T02:14:04.116Z,24.20
2019-05-01T02:17:09.247Z,23.70
2019-05-01T02:20:16.522Z,23.30
2019-05-01T02:23:21.796Z,23.73
2019-05-01T02:26:31.123Z,23.37
2019-05-01T02:29:42.360Z,22.57
2019-05-01T02:32:48.294Z,22.83
2019-05-01T02:35:53.662Z,23.00
2019-05-01T02:38:59.961Z,22.27
2019-05-01T02:42:06.762Z,23.33
2019-05-01T02:45:12.031Z,21.37
2019-05-01T02:48:22.991Z,22.33
2019-05-01T02:51:28.808Z,22.23
2019-05-01T02:54:36.241Z,22.00
2019-05-01T02:57:42.926Z,21.07
2019-05-01T03:00:48.327Z,20.70
2019-05-01T03:03:55.948Z,21.17
2019-05-01T03:07:02.783Z,21.40
2019-05-01T03:10:10.152Z,20.47
2019-05-01T03:13:15.614Z,20.77
2019-05-01T03:16:22.442Z,22.90
2019-05-01T03:19:45.972Z,21.07
2019-05-01T03:23:10.795Z,21.40
2019-05-01T03:26:16.730Z,21.03
2019-05-01T03:29:22.330Z,21.50
2019-05-01T03:32:27.904Z,21.00
2019-05-01T03:35:33.257Z,20.93
2019-05-01T03:38:38.783Z,21.83
2019-05-01T03:41:44.147Z,23.80
2019-05-01T03:44:49.498Z,21.50
2019-05-01T03:47:56.176Z,21.00
2019-05-01T03:51:01.951Z,19.63
2019-05-01T03:54:08.388Z,21.03
2019-05-01T03:57:14.120Z,21.60
2019-05-01T04:00:25.854Z,21.10
2019-05-01T04:03:35.409Z,20.10
2019-05-01T04:06:40.847Z,22.00
2019-05-01T04:09:46.031Z,21.67
2019-05-01T04:12:51.572Z,20.13
2019-05-01T04:15:57.338Z,20.23
2019-05-01T04:19:06.771Z,20.30
2019-05-01T04:22:13.879Z,20.70
2019-05-01T04:25:21.036Z,21.90
2019-05-01T04:28:43.078Z,21.43
2019-05-01T04:32:01.186Z,21.23
2019-05-01T04:35:26.401Z,20.43
2019-05-01T04:38:31.639Z,21.07
2019-05-01T04:41:37.282Z,21.63
2019-05-01T04:44:45.519Z,20.67
2019-05-01T04:47:51.055Z,20.60
2019-05-01T04:50:56.871Z,20.40
2019-05-01T04:54:03.235Z,20.57
2019-05-01T04:57:08.579Z,20.77
2019-05-01T05:00:13.995Z,21.43
2019-05-01T05:03:21.017Z,18.70
2019-05-01T05:06:26.742Z,18.40
2019-05-01T05:09:46.187Z,19.83
2019-05-01T05:13:06.706Z,19.90
2019-05-01T05:16:29.671Z,18.90
2019-05-01T05:19:34.844Z,17.67
2019-05-01T05:22:40.112Z,19.87
2019-05-01T05:25:45.579Z,17.93
2019-05-01T05:28:54.336Z,19.60
2019-05-01T05:32:02.946Z,19.63
2019-05-01T05:35:09.734Z,19.30
2019-05-01T05:38:35.609Z,19.20
2019-05-01T05:41:42.830Z,20.30
2019-05-01T05:44:49.016Z,19.00
2019-05-01T05:47:54.260Z,19.77
2019-05-01T05:51:26.195Z,21.97
2019-05-01T05:55:02.956Z,20.60
2019-05-01T05:58:34.765Z,21.83
2019-05-01T06:02:11.011Z,22.57
2019-05-01T06:05:28.935Z,20.43
2019-05-01T06:08:37.171Z,21.87
2019-05-01T06:12:13.881Z,20.97
2019-05-01T06:15:42.771Z,22.03
2019-05-01T06:19:09.667Z,22.77
2019-05-01T06:22:35.645Z,20.60
2019-05-01T06:25:43.504Z,19.73
2019-05-01T06:28:48.770Z,19.63
2019-05-01T06:31:58.779Z,19.60
2019-05-01T06:35:03.172Z,19.00
2019-05-01T06:38:13.939Z,19.47
2019-05-01T06:41:21.761Z,18.40
2019-05-01T06:44:44.081Z,18.70
2019-05-01T06:47:55.965Z,16.77
2019-05-01T06:51:20.140Z,16.63
2019-05-01T06:54:27.924Z,17.87
2019-05-01T06:57:33.470Z,16.70
2019-05-01T07:00:43.185Z,17.27
2019-05-01T07:04:02.951Z,18.33
2019-05-01T07:06:55.045Z,17.90
2019-05-01T07:10:01.316Z,16.20
2019-05-01T07:13:06.899Z,17.47
2019-05-01T07:16:12.190Z,18.13
2019-05-01T07:19:19.588Z,18.00
2019-05-01T07:22:25.048Z,18.43
2019-05-01T07:25:30.341Z,18.27
2019-05-01T07:28:36.668Z,18.07
2019-05-01T07:31:43.166Z,17.60
2019-05-01T07:34:48.999Z,17.50
2019-05-01T07:37:57.589Z,18.17
2019-05-01T07:41:03.469Z,18.50
2019-05-01T07:44:35.060Z,17.03
2019-05-01T07:47:41.830Z,16.60
2019-05-01T07:50:47.003Z,18.97
2019-05-01T07:53:52.790Z,16.63
2019-05-01T07:56:58.801Z,17.90
2019-05-01T08:00:08.598Z,16.97
2019-05-01T08:03:13.974Z,17.70
2019-05-01T08:06:21.772Z,16.27
2019-05-01T08:09:26.035Z,16.43
2019-05-01T08:12:31.399Z,15.73
2019-05-01T08:15:38.274Z,18.10
2019-05-01T08:18:58.990Z,17.30
2019-05-01T08:22:26.248Z,17.30
2019-05-01T08:25:33.247Z,16.00
2019-05-01T08:28:57.959Z,17.80
2019-05-01T08:32:11.438Z,16.27
2019-05-01T08:35:18.136Z,17.07
2019-05-01T08:38:23.348Z,15.80
2019-05-01T08:41:31.851Z,18.07
2019-05-01T08:44:51.633Z,17.17
2019-05-01T08:48:14.835Z,16.70
2019-05-01T08:51:20.094Z,17.97
2019-05-01T08:54:28.932Z,19.73
2019-05-01T08:57:34.485Z,19.47
2019-05-01T09:00:41.235Z,17.97
2019-05-01T09:03:49.741Z,17.57
2019-05-01T09:06:54.811Z,18.07
2019-05-01T09:10:00.241Z,18.10
2019-05-01T09:13:07.272Z,18.50
2019-05-01T09:16:12.548Z,17.43
2019-05-01T09:19:17.814Z,17.47
2019-05-01T09:22:24.323Z,18.87
2019-05-01T09:25:39.716Z,22.00
2019-05-01T09:28:51.808Z,19.77
2019-05-01T09:31:58.005Z,19.90
2019-05-01T09:35:15.115Z,19.27
2019-05-01T09:38:10.150Z,18.60
2019-05-01T09:41:15.355Z,21.20
2019-05-01T09:44:20.597Z,19.40
2019-05-01T09:47:26.640Z,19.33
2019-05-01T09:50:35.835Z,17.90
2019-05-01T09:53:47.955Z,20.53
2019-05-01T09:56:53.319Z,20.73
2019-05-01T09:59:58.563Z,20.97
2019-05-01T10:03:04.811Z,20.60
2019-05-01T10:06:12.746Z,18.90
2019-05-01T10:09:18.106Z,18.03
2019-05-01T10:12:23.352Z,21.57
2019-05-01T10:15:28.866Z,19.77
2019-05-01T10:18:35.245Z,19.43
2019-05-01T10:21:40.680Z,20.87
2019-05-01T10:24:48.277Z,20.77
2019-05-01T10:28:02.173Z,20.77
2019-05-01T10:31:14.937Z,21.50
2019-05-01T10:34:43.086Z,23.23
2019-05-01T10:37:49.047Z,21.00
2019-05-01T10:40:54.511Z,22.63
2019-05-01T10:43:59.764Z,21.47
2019-05-01T10:47:06.345Z,23.27
2019-05-01T10:50:11.740Z,19.90
2019-05-01T10:53:17.020Z,22.70
2019-05-01T10:56:22.214Z,22.33
2019-05-01T10:59:27.450Z,21.33
2019-05-01T11:02:32.699Z,21.90
2019-05-01T11:05:37.990Z,22.17
2019-05-01T11:08:43.264Z,22.60
2019-05-01T11:11:48.537Z,21.20
2019-05-01T11:14:54.026Z,22.30
2019-05-01T11:17:59.930Z,22.20
2019-05-01T11:21:05.453Z,22.03
2019-05-01T11:24:10.815Z,21.50
2019-05-01T11:27:17.815Z,19.93
2019-05-01T11:30:25.515Z,21.20
2019-05-01T11:34:04.970Z,23.40
2019-05-01T11:37:35.238Z,20.77
2019-05-01T11:40:53.128Z,20.77
2019-05-01T11:43:59.592Z,20.43
2019-05-01T11:47:04.789Z,21.60
2019-05-01T11:50:10.220Z,21.80
2019-05-01T11:53:15.459Z,20.87
2019-05-01T11:56:20.740Z,20.23
2019-05-01T11:59:26.014Z,20.33
2019-05-01T12:02:31.229Z,21.10
2019-05-01T12:05:37.243Z,19.80
2019-05-01T12:08:42.752Z,20.97
2019-05-01T12:11:50.155Z,21.37
2019-05-01T12:14:55.508Z,21.40
2019-05-01T12:18:01.739Z,20.60
2019-05-01T12:21:07.020Z,20.07
2019-05-01T12:24:12.218Z,19.70
2019-05-01T12:27:17.648Z,20.23
2019-05-01T12:30:23.449Z,21.57
2019-05-01T12:33:28.789Z,20.87
2019-05-01T12:36:36.531Z,20.93
2019-05-01T12:39:41.859Z,22.90
2019-05-01T12:42:48.823Z,21.50
2019-05-01T12:45:55.111Z,21.90
2019-05-01T12:49:04.538Z,21.73
2019-05-01T12:52:15.399Z,21.47
2019-05-01T12:55:40.167Z,21.00
2019-05-01T12:58:50.519Z,21.73
2019-05-01T13:01:55.838Z,21.80
2019-05-01T13:05:01.033Z,20.67
2019-05-01T13:08:07.824Z,21.47
2019-05-01T13:11:12.971Z,22.23
2019-05-01T13:14:18.212Z,20.83
2019-05-01T13:17:24.711Z,21.33
2019-05-01T13:20:29.926Z,21.20
2019-05-01T13:23:35.203Z,19.90
2019-05-01T13:26:48.834Z,19.20
2019-05-01T13:30:04.985Z,19.17
2019-05-01T13:33:46.096Z,21.07
2019-05-01T13:37:02.322Z,19.40
2019-05-01T13:40:17.661Z,19.77
2019-05-01T13:43:25.302Z,20.10
2019-05-01T13:46:30.568Z,21.13
2019-05-01T13:49:35.722Z,19.20
2019-05-01T13:52:40.898Z,20.10
2019-05-01T13:55:46.258Z,19.90
2019-05-01T13:58:51.459Z,20.60
2019-05-01T14:01:56.637Z,19.73
2019-05-01T14:05:01.798Z,21.03
2019-05-01T14:08:08.312Z,19.63
2019-05-01T14:11:13.556Z,19.70
2019-05-01T14:14:19.942Z,20.27
2019-05-01T14:17:25.097Z,17.30
2019-05-01T14:20:41.206Z,20.50
2019-05-01T14:24:11.266Z,20.37
2019-05-01T14:27:17.552Z,19.50
2019-05-01T14:30:22.813Z,19.17
2019-05-01T14:33:28.042Z,20.43
2019-05-01T14:36:34.842Z,20.57
2019-05-01T14:39:40.043Z,19.90
2019-05-01T14:42:45.271Z,19.70
2019-05-01T14:45:50.574Z,19.60
2019-05-01T14:48:57.639Z,20.53
2019-05-01T14:52:02.857Z,19.93
2019-05-01T14:55:08.434Z,19.60
2019-05-01T14:58:13.673Z,20.37
2019-05-01T15:01:18.877Z,19.83
2019-05-01T15:04:24.076Z,20.17
2019-05-01T15:07:42.140Z,19.10
2019-05-01T15:10:36.361Z,19.50
2019-05-01T15:14:05.521Z,18.47
2019-05-01T15:17:17.811Z,19.73
2019-05-01T15:20:23.102Z,18.60
2019-05-01T15:23:28.295Z,17.93
2019-05-01T15:26:33.435Z,19.37
2019-05-01T15:29:38.662Z,18.20
2019-05-01T15:32:43.861Z,19.60
2019-05-01T15:35:49.418Z,18.10
2019-05-01T15:38:56.085Z,17.10
2019-05-01T15:42:35.331Z,18.43
2019-05-01T15:45:40.647Z,17.90
2019-05-01T15:48:46.542Z,18.30
2019-05-01T15:51:52.031Z,18.00
2019-05-01T15:55:00.182Z,19.60
2019-05-01T15:58:11.117Z,17.70
2019-05-01T16:01:20.038Z,18.00
2019-05-01T16:04:27.571Z,17.37
2019-05-01T16:07:35.707Z,17.30
2019-05-01T16:10:54.000Z,19.33
2019-05-01T16:14:02.451Z,18.10
2019-05-01T16:17:10.898Z,18.70
2019-05-01T16:20:19.146Z,17.40
2019-05-01T16:23:29.236Z,17.07
2019-05-01T16:26:34.265Z,16.47
2019-05-01T16:29:42.155Z,18.87
2019-05-01T16:32:49.842Z,17.23
2019-05-01T16:35:56.677Z,18.57
2019-05-01T16:39:39.747Z,18.80
2019-05-01T16:42:46.965Z,17.97
2019-05-01T16:45:52.251Z,19.40
2019-05-01T16:49:01.743Z,19.00
2019-05-01T16:52:10.095Z,19.10
2019-05-01T16:55:16.136Z,19.50
2019-05-01T16:58:24.082Z,19.90
2019-05-01T17:01:38.543Z,19.27
2019-05-01T17:04:49.763Z,20.80
2019-05-01T17:08:35.520Z,20.73
2019-05-01T17:11:33.710Z,20.53
2019-05-01T17:14:40.807Z,20.97
2019-05-01T17:17:46.281Z,20.53
2019-05-01T17:20:53.740Z,20.47
2019-05-01T17:24:00.576Z,21.00
2019-05-01T17:27:09.208Z,20.20
2019-05-01T17:30:18.023Z,21.77
2019-05-01T17:33:24.677Z,19.87
2019-05-01T17:36:30.055Z,22.77
2019-05-01T17:39:36.867Z,20.77
2019-05-01T17:42:43.795Z,21.53
2019-05-01T17:45:49.051Z,22.73
2019-05-01T17:48:54.326Z,19.50
2019-05-01T17:52:01.316Z,20.80
2019-05-01T17:55:07.381Z,20.70
2019-05-01T17:58:12.581Z,21.33
2019-05-01T18:01:45.952Z,21.83
2019-05-01T18:05:09.915Z,22.67
2019-05-01T18:08:15.531Z,21.83
2019-05-01T18:11:20.810Z,21.17
2019-05-01T18:14:26.121Z,21.40
2019-05-01T18:17:31.397Z,21.27
2019-05-01T18:20:39.600Z,22.43
2019-05-01T18:24:18.869Z,21.47
2019-05-01T18:27:42.455Z,22.30
2019-05-01T18:30:51.680Z,23.53
2019-05-01T18:33:57.012Z,22.40
2019-05-01T18:37:09.670Z,22.33
2019-05-01T18:40:22.589Z,21.70
2019-05-01T18:43:32.067Z,21.50
2019-05-01T18:46:35.002Z,23.17
2019-05-01T18:49:40.192Z,22.60
2019-05-01T18:52:45.364Z,22.60
2019-05-01T18:55:50.628Z,23.23
2019-05-01T18:58:58.449Z,22.93
2019-05-01T19:02:04.037Z,22.10
2019-05-01T19:05:11.325Z,22.63
2019-05-01T19:08:17.919Z,21.33
2019-05-01T19:11:28.151Z,21.37
2019-05-01T19:14:42.404Z,21.93
2019-05-01T19:17:52.542Z,21.13
2019-05-01T19:21:00.046Z,22.30
2019-05-01T19:24:06.578Z,20.23
2019-05-01T19:27:14.209Z,20.13
2019-05-01T19:30:20.339Z,21.37
2019-05-01T19:33:26.625Z,21.53
2019-05-01T19:36:34.828Z,21.20
2019-05-01T19:39:44.459Z,20.27
2019-05-01T19:42:53.715Z,22.10
2019-05-01T19:46:01.422Z,21.53
2019-05-01T19:49:14.290Z,22.70
2019-05-01T19:52:20.851Z,21.20
2019-05-01T19:55:29.858Z,21.37
2019-05-01T19:58:37.780Z,20.20
2019-05-01T20:01:49.136Z,19.50
2019-05-01T20:04:52.941Z,19.80
2019-05-01T20:08:00.784Z,20.47
2019-05-01T20:11:11.115Z,20.30
2019-05-01T20:14:18.011Z,21.10
2019-05-01T20:17:28.611Z,21.27
2019-05-01T20:20:34.949Z,19.80
2019-05-01T20:23:42.070Z,18.40
2019-05-01T20:26:48.705Z,18.87
2019-05-01T20:29:56.586Z,18.00
2019-05-01T20:33:03.742Z,16.77
2019-05-01T20:36:10.340Z,18.67
2019-05-01T20:39:15.704Z,17.73
2019-05-01T20:42:21.673Z,18.27
2019-05-01T20:45:27.920Z,18.07
2019-05-01T20:48:33.103Z,19.40
2019-05-01T20:51:38.288Z,18.20
2019-05-01T20:54:43.502Z,17.57
2019-05-01T20:57:49.283Z,17.17
2019-05-01T21:00:58.957Z,18.13
2019-05-01T21:04:22.161Z,18.30
2019-05-01T21:07:31.173Z,17.23
2019-05-01T21:10:50.500Z,15.63
2019-05-01T21:13:56.635Z,16.93
2019-05-01T21:17:01.391Z,17.10
2019-05-01T21:20:06.793Z,17.00
2019-05-01T21:23:14.166Z,17.00
2019-05-01T21:26:18.984Z,17.83
2019-05-01T21:29:24.249Z,17.60
2019-05-01T21:32:29.470Z,15.90
2019-05-01T21:35:34.709Z,16.63
2019-05-01T21:38:39.909Z,17.57
2019-05-01T21:41:45.194Z,16.80
2019-05-01T21:44:50.365Z,16.70
2019-05-01T21:47:55.598Z,16.00
2019-05-01T21:51:03.315Z,17.10
2019-05-01T21:54:08.752Z,16.40
2019-05-01T21:57:17.447Z,16.20
2019-05-01T22:00:24.870Z,16.07
2019-05-01T22:03:30.318Z,16.90
2019-05-01T22:06:35.489Z,15.73
2019-05-01T22:09:41.148Z,18.63
2019-05-01T22:12:48.991Z,17.03
2019-05-01T22:15:59.042Z,17.40
2019-05-01T22:19:18.693Z,16.53
2019-05-01T22:22:33.111Z,16.90
2019-05-01T22:25:42.164Z,17.60
2019-05-01T22:28:54.924Z,16.60
2019-05-01T22:32:27.595Z,16.73
2019-05-01T22:35:36.434Z,17.27
2019-05-01T22:38:41.648Z,17.63
2019-05-01T22:41:46.850Z,16.70
2019-05-01T22:44:53.106Z,16.30
2019-05-01T22:47:58.313Z,15.90
2019-05-01T22:51:19.055Z,16.47
2019-05-01T22:54:25.398Z,17.67
2019-05-01T22:57:30.551Z,16.30
2019-05-01T23:00:46.913Z,17.77
2019-05-01T23:04:00.482Z,15.60
2019-05-01T23:07:05.713Z,15.70
2019-05-01T23:10:11.329Z,15.53
2019-05-01T23:13:16.488Z,15.20
2019-05-01T23:16:23.293Z,16.17
2019-05-01T23:19:29.621Z,16.50
2019-05-01T23:22:34.900Z,15.57
2019-05-01T23:25:41.151Z,15.33
2019-05-01T23:28:47.075Z,15.40
2019-05-01T23:31:52.269Z,14.53
2019-05-01T23:34:57.525Z,15.73
2019-05-01T23:38:02.717Z,14.67
2019-05-01T23:41:09.034Z,15.77
2019-05-01T23:44:14.308Z,15.53
2019-05-01T23:47:21.885Z,15.40
2019-05-01T23:50:27.042Z,15.70
2019-05-01T23:53:32.203Z,15.37
2019-05-01T23:56:37.350Z,15.70
2019-05-01T23:59:42.618Z,16.00
